sensor_id;sensor_type;location;lat;lon;timestamp;P1;durP1;ratioP1;P2;durP2;ratioP2
44246;SDS011;29922;0.000;0.000;2022-08-01T00:04:02;1.20;;;0.55;;
44246;SDS011;29922;0.000;0.000;2022-08-01T00:09:24;0.40;;;0.40;;
44246;SDS011;29922;0.000;0.000;2022-08-01T00:14:44;0.60;;;0.50;;
44246;SDS011;29922;0.000;0.000;2022-08-01T00:20:07;0.40;;;0.40;;
44246;SDS011;29922;0.000;0.000;2022-08-01T00:25:30;0.40;;;0.40;;
44246;SDS011;29922;0.000;0.000;2022-08-01T00:30:51;0.40;;;0.40;;
44246;SDS011;29922;0.000;0.000;2022-08-01T00:36:13;0.40;;;0.40;;
44246;SDS011;29922;0.000;0.000;2022-08-01T00:41:33;0.75;;;0.43;;
44246;SDS011;29922;0.000;0.000;2022-08-01T00:46:54;0.43;;;0.40;;
44246;SDS011;29922;0.000;0.000;2022-08-01T00:52:15;0.40;;;0.40;;
44246;SDS011;29922;0.000;0.000;2022-08-01T00:57:36;0.47;;;0.40;;
44246;SDS011;29922;0.000;0.000;2022-08-01T01:02:57;0.73;;;0.57;;
44246;SDS011;29922;0.000;0.000;2022-08-01T01:08:21;0.32;;;0.30;;
44246;SDS011;29922;0.000;0.000;2022-08-01T01:13:49;0.95;;;0.40;;
44246;SDS011;29922;0.000;0.000;2022-08-01T01:19:20;0.70;;;0.50;;
44246;SDS011;29922;0.000;0.000;2022-08-01T01:24:48;0.38;;;0.35;;
44246;SDS011;29922;0.000;0.000;2022-08-01T01:30:29;0.73;;;0.50;;
44246;SDS011;29922;0.000;0.000;2022-08-01T01:35:52;0.52;;;0.43;;
44246;SDS011;29922;0.000;0.000;2022-08-01T01:41:18;0.50;;;0.40;;
44246;SDS011;29922;0.000;0.000;2022-08-01T01:46:41;0.40;;;0.40;;
44246;SDS011;29922;0.000;0.000;2022-08-01T01:52:03;0.45;;;0.40;;
44246;SDS011;29922;0.000;0.000;2022-08-01T01:57:24;0.98;;;0.60;;
44246;SDS011;29922;0.000;0.000;2022-08-01T02:02:49;1.50;;;0.43;;
44246;SDS011;29922;0.000;0.000;2022-08-01T02:08:11;0.63;;;0.38;;
44246;SDS011;29922;0.000;0.000;2022-08-01T02:13:36;0.40;;;0.35;;
44246;SDS011;29922;0.000;0.000;2022-08-01T02:18:59;0.50;;;0.40;;
44246;SDS011;29922;0.000;0.000;2022-08-01T02:24:22;0.43;;;0.43;;
44246;SDS011;29922;0.000;0.000;2022-08-01T02:29:51;0.60;;;0.40;;
44246;SDS011;29922;0.000;0.000;2022-08-01T02:40:45;0.40;;;0.40;;
44246;SDS011;29922;0.000;0.000;2022-08-01T02:46:11;0.50;;;0.40;;
44246;SDS011;29922;0.000;0.000;2022-08-01T02:51:38;0.52;;;0.50;;
44246;SDS011;29922;0.000;0.000;2022-08-01T02:57:00;0.68;;;0.50;;
44246;SDS011;29922;0.000;0.000;2022-08-01T03:02:23;1.17;;;0.60;;
44246;SDS011;29922;0.000;0.000;2022-08-01T03:07:46;0.68;;;0.52;;
44246;SDS011;29922;0.000;0.000;2022-08-01T03:13:07;0.60;;;0.47;;
44246;SDS011;29922;0.000;0.000;2022-08-01T03:18:30;0.60;;;0.60;;
44246;SDS011;29922;0.000;0.000;2022-08-01T03:23:53;0.55;;;0.40;;
44246;SDS011;29922;0.000;0.000;2022-08-01T03:29:18;1.55;;;0.60;;
44246;SDS011;29922;0.000;0.000;2022-08-01T03:34:43;0.80;;;0.60;;
44246;SDS011;29922;0.000;0.000;2022-08-01T03:40:07;1.48;;;0.50;;
44246;SDS011;29922;0.000;0.000;2022-08-01T03:45:34;1.08;;;0.75;;
44246;SDS011;29922;0.000;0.000;2022-08-01T03:50:59;1.10;;;0.60;;
44246;SDS011;29922;0.000;0.000;2022-08-01T03:56:21;0.50;;;0.50;;
44246;SDS011;29922;0.000;0.000;2022-08-01T04:01:44;0.65;;;0.55;;
44246;SDS011;29922;0.000;0.000;2022-08-01T04:07:12;0.90;;;0.70;;
44246;SDS011;29922;0.000;0.000;2022-08-01T04:12:43;0.73;;;0.50;;
44246;SDS011;29922;0.000;0.000;2022-08-01T04:18:04;0.60;;;0.60;;
44246;SDS011;29922;0.000;0.000;2022-08-01T04:23:25;0.90;;;0.70;;
44246;SDS011;29922;0.000;0.000;2022-08-01T04:28:49;0.90;;;0.80;;
44246;SDS011;29922;0.000;0.000;2022-08-01T04:34:14;1.10;;;0.70;;
44246;SDS011;29922;0.000;0.000;2022-08-01T04:39:38;0.80;;;0.70;;
44246;SDS011;29922;0.000;0.000;2022-08-01T04:45:03;0.95;;;0.80;;
44246;SDS011;29922;0.000;0.000;2022-08-01T04:50:27;0.90;;;0.70;;
44246;SDS011;29922;0.000;0.000;2022-08-01T04:55:48;1.20;;;0.82;;
44246;SDS011;29922;0.000;0.000;2022-08-01T05:01:11;1.60;;;1.00;;
44246;SDS011;29922;0.000;0.000;2022-08-01T05:06:32;1.00;;;0.80;;
44246;SDS011;29922;0.000;0.000;2022-08-01T05:11:53;0.85;;;0.75;;
44246;SDS011;29922;0.000;0.000;2022-08-01T05:17:18;1.05;;;0.80;;
44246;SDS011;29922;0.000;0.000;2022-08-01T05:22:38;0.90;;;0.80;;
44246;SDS011;29922;0.000;0.000;2022-08-01T05:27:59;1.08;;;0.80;;
44246;SDS011;29922;0.000;0.000;2022-08-01T05:33:21;0.90;;;0.80;;
44246;SDS011;29922;0.000;0.000;2022-08-01T05:38:42;1.13;;;0.70;;
44246;SDS011;29922;0.000;0.000;2022-08-01T05:44:03;1.13;;;0.65;;
44246;SDS011;29922;0.000;0.000;2022-08-01T05:49:25;1.02;;;0.75;;
44246;SDS011;29922;0.000;0.000;2022-08-01T05:54:46;1.73;;;0.70;;
44246;SDS011;29922;0.000;0.000;2022-08-01T06:00:07;0.60;;;0.60;;
44246;SDS011;29922;0.000;0.000;2022-08-01T06:05:32;1.17;;;0.93;;
44246;SDS011;29922;0.000;0.000;2022-08-01T06:10:53;0.93;;;0.80;;
44246;SDS011;29922;0.000;0.000;2022-08-01T06:16:13;2.45;;;0.73;;
44246;SDS011;29922;0.000;0.000;2022-08-01T06:21:35;1.23;;;0.80;;
44246;SDS011;29922;0.000;0.000;2022-08-01T06:26:55;1.05;;;0.90;;
44246;SDS011;29922;0.000;0.000;2022-08-01T06:32:16;1.35;;;0.80;;
44246;SDS011;29922;0.000;0.000;2022-08-01T06:37:38;1.23;;;0.65;;
44246;SDS011;29922;0.000;0.000;2022-08-01T06:42:58;0.77;;;0.70;;
44246;SDS011;29922;0.000;0.000;2022-08-01T06:48:19;0.85;;;0.70;;
44246;SDS011;29922;0.000;0.000;2022-08-01T06:53:41;1.15;;;0.85;;
44246;SDS011;29922;0.000;0.000;2022-08-01T06:59:01;1.75;;;0.70;;
44246;SDS011;29922;0.000;0.000;2022-08-01T07:04:22;1.35;;;0.85;;
44246;SDS011;29922;0.000;0.000;2022-08-01T07:09:44;0.95;;;0.70;;
44246;SDS011;29922;0.000;0.000;2022-08-01T07:15:05;1.00;;;0.73;;
44246;SDS011;29922;0.000;0.000;2022-08-01T07:20:26;1.52;;;0.82;;
44246;SDS011;29922;0.000;0.000;2022-08-01T07:25:48;1.48;;;0.82;;
44246;SDS011;29922;0.000;0.000;2022-08-01T07:31:11;1.08;;;0.90;;
44246;SDS011;29922;0.000;0.000;2022-08-01T07:36:32;2.13;;;0.90;;
44246;SDS011;29922;0.000;0.000;2022-08-01T07:41:53;1.48;;;0.70;;
44246;SDS011;29922;0.000;0.000;2022-08-01T07:47:14;1.33;;;0.82;;
44246;SDS011;29922;0.000;0.000;2022-08-01T07:52:35;1.48;;;0.80;;
44246;SDS011;29922;0.000;0.000;2022-08-01T07:57:57;1.73;;;1.00;;
44246;SDS011;29922;0.000;0.000;2022-08-01T08:03:18;2.08;;;0.82;;
44246;SDS011;29922;0.000;0.000;2022-08-01T08:08:38;1.33;;;0.80;;
44246;SDS011;29922;0.000;0.000;2022-08-01T08:14:00;1.90;;;0.88;;
44246;SDS011;29922;0.000;0.000;2022-08-01T08:19:21;1.80;;;0.90;;
44246;SDS011;29922;0.000;0.000;2022-08-01T08:24:41;1.30;;;0.90;;
44246;SDS011;29922;0.000;0.000;2022-08-01T08:30:05;1.00;;;0.90;;
44246;SDS011;29922;0.000;0.000;2022-08-01T08:35:27;0.85;;;0.70;;
44246;SDS011;29922;0.000;0.000;2022-08-01T08:40:48;1.17;;;0.70;;
44246;SDS011;29922;0.000;0.000;2022-08-01T08:46:10;2.45;;;1.00;;
44246;SDS011;29922;0.000;0.000;2022-08-01T08:51:32;1.45;;;0.85;;
44246;SDS011;29922;0.000;0.000;2022-08-01T08:56:58;1.48;;;0.77;;
44246;SDS011;29922;0.000;0.000;2022-08-01T09:02:22;1.02;;;0.82;;
44246;SDS011;29922;0.000;0.000;2022-08-01T09:07:43;2.72;;;0.80;;
44246;SDS011;29922;0.000;0.000;2022-08-01T09:13:05;1.17;;;0.80;;
44246;SDS011;29922;0.000;0.000;2022-08-01T09:18:32;0.85;;;0.70;;
44246;SDS011;29922;0.000;0.000;2022-08-01T09:23:55;1.17;;;0.80;;
44246;SDS011;29922;0.000;0.000;2022-08-01T09:29:18;0.82;;;0.73;;
44246;SDS011;29922;0.000;0.000;2022-08-01T09:34:42;0.95;;;0.80;;
44246;SDS011;29922;0.000;0.000;2022-08-01T09:40:05;1.00;;;0.77;;
44246;SDS011;29922;0.000;0.000;2022-08-01T09:45:33;1.00;;;0.65;;
44246;SDS011;29922;0.000;0.000;2022-08-01T09:50:56;1.15;;;0.80;;
44246;SDS011;29922;0.000;0.000;2022-08-01T09:56:19;0.88;;;0.60;;
44246;SDS011;29922;0.000;0.000;2022-08-01T10:01:41;0.68;;;0.60;;
44246;SDS011;29922;0.000;0.000;2022-08-01T10:07:06;0.77;;;0.68;;
44246;SDS011;29922;0.000;0.000;2022-08-01T10:12:27;1.58;;;0.73;;
44246;SDS011;29922;0.000;0.000;2022-08-01T10:17:51;1.02;;;0.80;;
44246;SDS011;29922;0.000;0.000;2022-08-01T10:23:15;0.80;;;0.60;;
44246;SDS011;29922;0.000;0.000;2022-08-01T10:28:36;2.42;;;0.50;;
44246;SDS011;29922;0.000;0.000;2022-08-01T10:33:58;1.10;;;0.73;;
44246;SDS011;29922;0.000;0.000;2022-08-01T10:39:21;2.15;;;0.80;;
44246;SDS011;29922;0.000;0.000;2022-08-01T10:44:42;1.20;;;0.52;;
44246;SDS011;29922;0.000;0.000;2022-08-01T10:50:07;1.15;;;0.60;;
44246;SDS011;29922;0.000;0.000;2022-08-01T10:55:50;1.80;;;0.70;;
44246;SDS011;29922;0.000;0.000;2022-08-01T11:01:20;1.40;;;0.90;;
44246;SDS011;29922;0.000;0.000;2022-08-01T11:06:52;0.82;;;0.50;;
44246;SDS011;29922;0.000;0.000;2022-08-01T11:12:24;1.15;;;0.80;;
44246;SDS011;29922;0.000;0.000;2022-08-01T11:17:59;0.80;;;0.60;;
44246;SDS011;29922;0.000;0.000;2022-08-01T11:23:23;1.70;;;0.60;;
44246;SDS011;29922;0.000;0.000;2022-08-01T11:40:15;0.70;;;0.55;;
44246;SDS011;29922;0.000;0.000;2022-08-01T11:45:49;1.05;;;0.60;;
44246;SDS011;29922;0.000;0.000;2022-08-01T11:51:15;1.58;;;0.60;;
44246;SDS011;29922;0.000;0.000;2022-08-01T11:56:36;1.13;;;0.70;;
44246;SDS011;29922;0.000;0.000;2022-08-01T12:02:00;1.33;;;0.77;;
44246;SDS011;29922;0.000;0.000;2022-08-01T12:07:21;1.45;;;0.70;;
44246;SDS011;29922;0.000;0.000;2022-08-01T12:12:44;0.60;;;0.50;;
44246;SDS011;29922;0.000;0.000;2022-08-01T12:18:09;0.88;;;0.60;;
44246;SDS011;29922;0.000;0.000;2022-08-01T12:23:30;0.85;;;0.40;;
44246;SDS011;29922;0.000;0.000;2022-08-01T12:28:51;0.90;;;0.55;;
44246;SDS011;29922;0.000;0.000;2022-08-01T12:34:28;1.15;;;0.60;;
44246;SDS011;29922;0.000;0.000;2022-08-01T12:45:10;1.23;;;0.50;;
44246;SDS011;29922;0.000;0.000;2022-08-01T12:50:35;0.77;;;0.43;;
44246;SDS011;29922;0.000;0.000;2022-08-01T12:55:58;0.63;;;0.40;;
44246;SDS011;29922;0.000;0.000;2022-08-01T13:01:24;1.02;;;0.60;;
44246;SDS011;29922;0.000;0.000;2022-08-01T13:06:47;10.77;;;1.00;;
44246;SDS011;29922;0.000;0.000;2022-08-01T13:12:08;10.43;;;1.00;;
44246;SDS011;29922;0.000;0.000;2022-08-01T13:17:30;7.93;;;1.17;;
44246;SDS011;29922;0.000;0.000;2022-08-01T13:22:53;24.88;;;1.98;;
44246;SDS011;29922;0.000;0.000;2022-08-01T13:28:14;23.77;;;2.58;;
44246;SDS011;29922;0.000;0.000;2022-08-01T13:33:41;20.67;;;2.30;;
44246;SDS011;29922;0.000;0.000;2022-08-01T13:39:05;18.55;;;2.25;;
44246;SDS011;29922;0.000;0.000;2022-08-01T13:44:44;19.50;;;2.25;;
44246;SDS011;29922;0.000;0.000;2022-08-01T13:50:05;17.02;;;1.63;;
44246;SDS011;29922;0.000;0.000;2022-08-01T13:55:27;14.10;;;1.88;;
44246;SDS011;29922;0.000;0.000;2022-08-01T14:00:48;18.35;;;1.83;;
44246;SDS011;29922;0.000;0.000;2022-08-01T14:06:08;14.65;;;1.45;;
44246;SDS011;29922;0.000;0.000;2022-08-01T14:11:31;20.40;;;1.85;;
44246;SDS011;29922;0.000;0.000;2022-08-01T14:16:51;11.45;;;1.65;;
44246;SDS011;29922;0.000;0.000;2022-08-01T14:22:12;17.70;;;1.73;;
44246;SDS011;29922;0.000;0.000;2022-08-01T14:27:34;18.75;;;2.45;;
44246;SDS011;29922;0.000;0.000;2022-08-01T14:32:55;11.68;;;1.88;;
44246;SDS011;29922;0.000;0.000;2022-08-01T14:38:16;14.85;;;1.88;;
44246;SDS011;29922;0.000;0.000;2022-08-01T14:43:38;12.48;;;1.83;;
44246;SDS011;29922;0.000;0.000;2022-08-01T14:48:59;18.10;;;2.38;;
44246;SDS011;29922;0.000;0.000;2022-08-01T14:54:19;12.88;;;1.80;;
44246;SDS011;29922;0.000;0.000;2022-08-01T14:59:41;17.67;;;1.90;;
44246;SDS011;29922;0.000;0.000;2022-08-01T15:05:02;20.08;;;2.08;;
44246;SDS011;29922;0.000;0.000;2022-08-01T15:10:23;13.40;;;1.98;;
44246;SDS011;29922;0.000;0.000;2022-08-01T15:15:45;12.45;;;1.67;;
44246;SDS011;29922;0.000;0.000;2022-08-01T15:21:06;11.77;;;1.92;;
44246;SDS011;29922;0.000;0.000;2022-08-01T15:26:26;13.70;;;1.60;;
44246;SDS011;29922;0.000;0.000;2022-08-01T15:31:49;14.18;;;1.70;;
44246;SDS011;29922;0.000;0.000;2022-08-01T15:37:10;9.80;;;1.50;;
44246;SDS011;29922;0.000;0.000;2022-08-01T15:42:33;10.45;;;1.55;;
44246;SDS011;29922;0.000;0.000;2022-08-01T15:47:55;6.72;;;1.15;;
44246;SDS011;29922;0.000;0.000;2022-08-01T15:53:15;6.85;;;1.30;;
44246;SDS011;29922;0.000;0.000;2022-08-01T15:58:36;7.82;;;1.38;;
44246;SDS011;29922;0.000;0.000;2022-08-01T16:03:58;7.07;;;1.90;;
44246;SDS011;29922;0.000;0.000;2022-08-01T16:09:19;7.55;;;1.60;;
44246;SDS011;29922;0.000;0.000;2022-08-01T16:14:40;4.85;;;1.70;;
44246;SDS011;29922;0.000;0.000;2022-08-01T16:20:02;3.90;;;2.00;;
44246;SDS011;29922;0.000;0.000;2022-08-01T16:25:23;4.82;;;1.55;;
44246;SDS011;29922;0.000;0.000;2022-08-01T16:30:44;7.68;;;1.92;;
44246;SDS011;29922;0.000;0.000;2022-08-01T16:36:07;3.53;;;1.60;;
44246;SDS011;29922;0.000;0.000;2022-08-01T16:41:28;4.47;;;1.60;;
44246;SDS011;29922;0.000;0.000;2022-08-01T16:46:49;3.35;;;1.50;;
44246;SDS011;29922;0.000;0.000;2022-08-01T16:52:11;5.53;;;1.60;;
44246;SDS011;29922;0.000;0.000;2022-08-01T16:57:32;6.32;;;1.67;;
44246;SDS011;29922;0.000;0.000;2022-08-01T17:02:56;6.78;;;1.73;;
44246;SDS011;29922;0.000;0.000;2022-08-01T17:08:17;4.50;;;1.45;;
44246;SDS011;29922;0.000;0.000;2022-08-01T17:13:38;3.17;;;1.35;;
44246;SDS011;29922;0.000;0.000;2022-08-01T17:18:59;3.67;;;1.48;;
44246;SDS011;29922;0.000;0.000;2022-08-01T17:24:21;4.55;;;1.40;;
44246;SDS011;29922;0.000;0.000;2022-08-01T17:29:41;3.28;;;1.60;;
44246;SDS011;29922;0.000;0.000;2022-08-01T17:35:02;3.03;;;1.38;;
44246;SDS011;29922;0.000;0.000;2022-08-01T17:40:25;4.13;;;1.65;;
44246;SDS011;29922;0.000;0.000;2022-08-01T17:45:46;3.10;;;1.27;;
44246;SDS011;29922;0.000;0.000;2022-08-01T17:51:08;4.45;;;1.42;;
44246;SDS011;29922;0.000;0.000;2022-08-01T17:56:29;2.50;;;1.23;;
44246;SDS011;29922;0.000;0.000;2022-08-01T18:01:51;2.35;;;1.27;;
44246;SDS011;29922;0.000;0.000;2022-08-01T18:07:12;3.00;;;1.38;;
44246;SDS011;29922;0.000;0.000;2022-08-01T18:12:33;3.40;;;1.50;;
44246;SDS011;29922;0.000;0.000;2022-08-01T18:17:54;1.75;;;1.10;;
44246;SDS011;29922;0.000;0.000;2022-08-01T18:23:15;2.38;;;1.00;;
44246;SDS011;29922;0.000;0.000;2022-08-01T18:28:37;3.80;;;1.33;;
44246;SDS011;29922;0.000;0.000;2022-08-01T18:33:58;2.30;;;1.20;;
44246;SDS011;29922;0.000;0.000;2022-08-01T18:39:19;1.70;;;1.13;;
44246;SDS011;29922;0.000;0.000;2022-08-01T18:44:40;1.40;;;1.08;;
44246;SDS011;29922;0.000;0.000;2022-08-01T18:50:01;3.72;;;1.17;;
44246;SDS011;29922;0.000;0.000;2022-08-01T18:55:23;2.25;;;1.13;;
44246;SDS011;29922;0.000;0.000;2022-08-01T19:00:45;2.25;;;1.00;;
44246;SDS011;29922;0.000;0.000;2022-08-01T19:06:05;2.63;;;1.15;;
44246;SDS011;29922;0.000;0.000;2022-08-01T19:11:27;2.15;;;0.98;;
44246;SDS011;29922;0.000;0.000;2022-08-01T19:16:49;2.85;;;1.25;;
44246;SDS011;29922;0.000;0.000;2022-08-01T19:22:10;2.65;;;1.10;;
44246;SDS011;29922;0.000;0.000;2022-08-01T19:27:31;1.15;;;0.90;;
44246;SDS011;29922;0.000;0.000;2022-08-01T19:32:57;1.17;;;0.80;;
44246;SDS011;29922;0.000;0.000;2022-08-01T19:38:18;1.27;;;0.95;;
44246;SDS011;29922;0.000;0.000;2022-08-01T19:43:39;1.25;;;0.95;;
44246;SDS011;29922;0.000;0.000;2022-08-01T19:49:01;1.02;;;0.80;;
44246;SDS011;29922;0.000;0.000;2022-08-01T19:54:22;2.35;;;0.90;;
44246;SDS011;29922;0.000;0.000;2022-08-01T19:59:47;1.33;;;0.90;;
44246;SDS011;29922;0.000;0.000;2022-08-01T20:05:13;1.55;;;0.80;;
44246;SDS011;29922;0.000;0.000;2022-08-01T20:10:33;1.20;;;0.82;;
44246;SDS011;29922;0.000;0.000;2022-08-01T20:15:56;1.73;;;0.98;;
44246;SDS011;29922;0.000;0.000;2022-08-01T20:21:18;2.13;;;0.80;;
44246;SDS011;29922;0.000;0.000;2022-08-01T20:26:40;1.80;;;1.00;;
44246;SDS011;29922;0.000;0.000;2022-08-01T20:32:05;1.48;;;0.90;;
44246;SDS011;29922;0.000;0.000;2022-08-01T20:37:28;1.33;;;0.90;;
44246;SDS011;29922;0.000;0.000;2022-08-01T20:42:58;1.20;;;1.00;;
44246;SDS011;29922;0.000;0.000;2022-08-01T20:48:19;1.48;;;1.00;;
44246;SDS011;29922;0.000;0.000;2022-08-01T20:53:42;1.02;;;0.80;;
44246;SDS011;29922;0.000;0.000;2022-08-01T20:59:08;2.13;;;0.82;;
44246;SDS011;29922;0.000;0.000;2022-08-01T21:04:41;2.20;;;1.00;;
44246;SDS011;29922;0.000;0.000;2022-08-01T21:10:13;2.22;;;1.00;;
44246;SDS011;29922;0.000;0.000;2022-08-01T21:15:40;1.00;;;0.88;;
44246;SDS011;29922;0.000;0.000;2022-08-01T21:21:05;1.30;;;0.80;;
44246;SDS011;29922;0.000;0.000;2022-08-01T21:26:31;1.58;;;1.00;;
44246;SDS011;29922;0.000;0.000;2022-08-01T21:31:54;1.38;;;0.90;;
44246;SDS011;29922;0.000;0.000;2022-08-01T21:37:29;2.53;;;1.00;;
44246;SDS011;29922;0.000;0.000;2022-08-01T21:42:52;1.23;;;0.90;;
44246;SDS011;29922;0.000;0.000;2022-08-01T21:48:14;0.93;;;0.77;;
44246;SDS011;29922;0.000;0.000;2022-08-01T21:53:39;1.77;;;1.00;;
44246;SDS011;29922;0.000;0.000;2022-08-01T21:59:09;1.65;;;0.85;;
44246;SDS011;29922;0.000;0.000;2022-08-01T22:04:36;0.98;;;0.70;;
44246;SDS011;29922;0.000;0.000;2022-08-01T22:10:03;1.00;;;0.70;;
44246;SDS011;29922;0.000;0.000;2022-08-01T22:15:27;1.02;;;0.80;;
44246;SDS011;29922;0.000;0.000;2022-08-01T22:20:50;0.82;;;0.80;;
44246;SDS011;29922;0.000;0.000;2022-08-01T22:26:12;1.95;;;0.70;;
44246;SDS011;29922;0.000;0.000;2022-08-01T22:31:34;2.08;;;1.00;;
44246;SDS011;29922;0.000;0.000;2022-08-01T22:36:55;1.33;;;0.85;;
44246;SDS011;29922;0.000;0.000;2022-08-01T22:42:16;1.02;;;0.80;;
44246;SDS011;29922;0.000;0.000;2022-08-01T22:47:44;1.30;;;0.90;;
44246;SDS011;29922;0.000;0.000;2022-08-01T22:53:20;1.02;;;0.70;;
44246;SDS011;29922;0.000;0.000;2022-08-01T23:04:07;0.70;;;0.60;;
44246;SDS011;29922;0.000;0.000;2022-08-01T23:09:38;1.27;;;0.90;;
44246;SDS011;29922;0.000;0.000;2022-08-01T23:15:00;1.48;;;1.00;;
44246;SDS011;29922;0.000;0.000;2022-08-01T23:20:22;0.98;;;0.70;;
44246;SDS011;29922;0.000;0.000;2022-08-01T23:25:42;0.75;;;0.63;;
44246;SDS011;29922;0.000;0.000;2022-08-01T23:31:06;0.70;;;0.60;;
44246;SDS011;29922;0.000;0.000;2022-08-01T23:36:31;1.40;;;0.75;;
44246;SDS011;29922;0.000;0.000;2022-08-01T23:41:52;1.23;;;1.00;;
44246;SDS011;29922;0.000;0.000;2022-08-01T23:47:13;1.25;;;0.90;;
44246;SDS011;29922;0.000;0.000;2022-08-01T23:52:35;1.10;;;0.80;;
44246;SDS011;29922;0.000;0.000;2022-08-01T23:57:56;1.40;;;0.80;;
